Time;durP1;ratioP1;P1;durP2;ratioP2;P2;SDS_P1;SDS_P2;PMS_P1;PMS_P2;Temp;Humidity;BMP_temperature;BMP_pressure;BME280_temperature;BME280_humidity;BME280_pressure;Samples;Min_cycle;Max_cycle;Signal;HPM_P1;HPM_P2
2022/11/20 00:00:09;;;;;;;12.57;9.63;;;;;;;;;;1264514;23;20002;-80
2022/11/20 00:00:40;;;;;;;12.75;9.55;;;;;;;;;;1264614;23;20008;-79
2022/11/20 00:01:13;;;;;;;13.65;9.20;;;;;;;;;;1270008;23;20080;-79
2022/11/20 00:01:44;;;;;;;13.93;10.50;;;;;;;;;;1270478;23;20100;-81
2022/11/20 00:02:15;;;;;;;14.82;10.85;;;;;;;;;;1270962;23;20001;-80
2022/11/20 00:02:46;;;;;;;13.38;10.40;;;;;;;;;;1276579;23;19997;-80
2022/11/20 00:03:17;;;;;;;12.73;9.48;;;;;;;;;;1276783;23;20089;-81
2022/11/20 00:03:48;;;;;;;13.57;9.77;;;;;;;;;;1275776;23;20008;-79
2022/11/20 00:04:19;;;;;;;14.32;9.50;;;;;;;;;;1276760;23;20005;-79
2022/11/20 00:04:50;;;;;;;13.07;9.10;;;;;;;;;;1270267;23;20461;-81
2022/11/20 00:05:21;;;;;;;17.27;10.23;;;;;;;;;;1270578;23;20009;-80
2022/11/20 00:05:52;;;;;;;14.70;10.25;;;;;;;;;;1264326;23;20061;-79
2022/11/20 00:06:23;;;;;;;12.50;8.90;;;;;;;;;;1264691;23;20734;-79
2022/11/20 00:06:54;;;;;;;14.70;9.63;;;;;;;;;;1264554;23;20006;-79
2022/11/20 00:07:25;;;;;;;13.23;9.43;;;;;;;;;;1258034;23;20093;-79
2022/11/20 00:07:56;;;;;;;11.77;8.48;;;;;;;;;;1258915;23;20013;-80
2022/11/20 00:08:27;;;;;;;12.85;8.30;;;;;;;;;;1258673;23;20006;-80
2022/11/20 00:08:59;;;;;;;12.50;8.88;;;;;;;;;;1257946;23;20101;-80
2022/11/20 00:09:30;;;;;;;13.20;9.18;;;;;;;;;;1264348;23;20010;-80
2022/11/20 00:10:01;;;;;;;14.95;9.82;;;;;;;;;;1265328;23;20009;-80
2022/11/20 00:10:32;;;;;;;10.95;8.60;;;;;;;;;;1264254;23;20417;-80
2022/11/20 00:11:07;;;;;;;12.45;10.05;;;;;;;;;;1264421;23;20006;-79
2022/11/20 00:11:38;;;;;;;12.95;9.25;;;;;;;;;;1265199;23;20022;-80
2022/11/20 00:12:09;;;;;;;13.95;10.10;;;;;;;;;;1270738;23;20002;-79
2022/11/20 00:12:40;;;;;;;14.98;11.07;;;;;;;;;;1270497;23;19997;-79
2022/11/20 00:13:10;;;;;;;14.13;10.52;;;;;;;;;;1270699;23;20052;-79
2022/11/20 00:13:42;;;;;;;12.85;9.18;;;;;;;;;;1270012;23;20263;-80
2022/11/20 00:14:12;;;;;;;13.25;9.55;;;;;;;;;;1277417;23;20313;-81
2022/11/20 00:14:43;;;;;;;12.02;9.00;;;;;;;;;;1276838;23;20369;-81
2022/11/20 00:15:14;;;;;;;13.52;10.13;;;;;;;;;;1277207;23;20001;-79
2022/11/20 00:15:45;;;;;;;13.35;10.32;;;;;;;;;;1270201;23;20089;-79
2022/11/20 00:16:18;;;;;;;12.48;9.20;;;;;;;;;;1264514;23;20013;-79
2022/11/20 00:16:49;;;;;;;14.43;9.40;;;;;;;;;;1264088;23;20009;-79
2022/11/20 00:17:19;;;;;;;12.02;9.48;;;;;;;;;;1265191;23;20006;-79
2022/11/20 00:17:51;;;;;;;13.43;9.85;;;;;;;;;;1270312;23;20041;-79
2022/11/20 00:18:22;;;;;;;14.70;10.73;;;;;;;;;;1264454;23;20064;-79
2022/11/20 00:18:53;;;;;;;13.50;11.15;;;;;;;;;;1263824;23;20068;-79
2022/11/20 00:19:24;;;;;;;13.50;10.45;;;;;;;;;;1270619;23;20102;-80
2022/11/20 00:19:55;;;;;;;14.68;10.63;;;;;;;;;;1270612;23;20038;-79
2022/11/20 00:20:26;;;;;;;15.32;11.93;;;;;;;;;;1270778;23;20468;-80
2022/11/20 00:21:07;;;;;;;15.98;12.40;;;;;;;;;;1270522;23;20002;-79
2022/11/20 00:21:38;;;;;;;15.93;9.88;;;;;;;;;;1266891;23;20006;-79
2022/11/20 00:22:09;;;;;;;13.73;9.18;;;;;;;;;;1270233;23;20139;-80
2022/11/20 00:22:40;;;;;;;13.27;9.85;;;;;;;;;;1270675;23;19998;-80
2022/11/20 00:23:11;;;;;;;15.40;10.93;;;;;;;;;;1270426;23;20370;-80
2022/11/20 00:23:42;;;;;;;13.07;9.43;;;;;;;;;;1269189;23;20000;-79
2022/11/20 00:24:13;;;;;;;12.68;9.57;;;;;;;;;;1264620;23;20000;-79
2022/11/20 00:24:44;;;;;;;14.35;10.07;;;;;;;;;;1270494;23;20012;-79
2022/11/20 00:25:15;;;;;;;14.25;9.25;;;;;;;;;;1270311;23;20005;-79
2022/11/20 00:25:46;;;;;;;14.15;9.85;;;;;;;;;;1270587;23;20007;-80
2022/11/20 00:26:19;;;;;;;12.98;9.88;;;;;;;;;;1270420;23;20033;-80
2022/11/20 00:26:49;;;;;;;15.18;10.13;;;;;;;;;;1270910;23;19989;-80
2022/11/20 00:27:20;;;;;;;13.73;9.15;;;;;;;;;;1264944;23;20030;-80
2022/11/20 00:27:51;;;;;;;11.10;8.07;;;;;;;;;;1270495;23;20025;-79
2022/11/20 00:28:22;;;;;;;14.15;8.80;;;;;;;;;;1270412;23;20064;-80
2022/11/20 00:28:54;;;;;;;13.23;9.25;;;;;;;;;;1269895;23;20663;-80
2022/11/20 00:29:25;;;;;;;13.90;10.48;;;;;;;;;;1270674;23;19993;-80
2022/11/20 00:29:56;;;;;;;13.02;9.63;;;;;;;;;;1270786;23;20000;-80
2022/11/20 00:30:27;;;;;;;12.30;9.50;;;;;;;;;;1264784;23;20037;-80
2022/11/20 00:31:08;;;;;;;15.38;10.93;;;;;;;;;;1264822;23;20001;-80
2022/11/20 00:31:39;;;;;;;16.55;10.60;;;;;;;;;;1264425;23;20316;-80
2022/11/20 00:32:10;;;;;;;14.25;10.38;;;;;;;;;;1267122;23;20533;-79
2022/11/20 00:32:41;;;;;;;13.32;10.05;;;;;;;;;;1273370;23;20004;-80
2022/11/20 00:33:12;;;;;;;13.88;9.80;;;;;;;;;;1270558;23;20017;-80
2022/11/20 00:33:44;;;;;;;13.23;9.85;;;;;;;;;;1269237;23;20500;-79
2022/11/20 00:34:15;;;;;;;13.00;9.95;;;;;;;;;;1270818;23;19994;-79
2022/11/20 00:34:46;;;;;;;14.93;10.70;;;;;;;;;;1270961;23;19990;-80
2022/11/20 00:35:17;;;;;;;15.57;12.23;;;;;;;;;;1270765;23;19997;-80
2022/11/20 00:35:48;;;;;;;17.05;11.23;;;;;;;;;;1263908;23;19994;-80
2022/11/20 00:36:19;;;;;;;15.95;12.32;;;;;;;;;;1264844;23;20457;-81
2022/11/20 00:36:50;;;;;;;15.63;10.85;;;;;;;;;;1264685;23;20001;-80
2022/11/20 00:37:21;;;;;;;12.98;9.55;;;;;;;;;;1264466;23;19998;-80
2022/11/20 00:37:52;;;;;;;14.05;10.18;;;;;;;;;;1264557;23;19998;-80
2022/11/20 00:38:23;;;;;;;13.63;9.05;;;;;;;;;;1264997;23;19990;-80
2022/11/20 00:38:55;;;;;;;14.25;10.60;;;;;;;;;;1268949;23;20036;-80
2022/11/20 00:39:26;;;;;;;14.10;9.80;;;;;;;;;;1270737;23;20340;-81
2022/11/20 00:39:57;;;;;;;12.07;9.98;;;;;;;;;;1270659;23;20357;-80
2022/11/20 00:40:28;;;;;;;12.25;8.85;;;;;;;;;;1270066;23;20361;-80
2022/11/20 00:41:03;;;;;;;16.35;10.48;;;;;;;;;;1270301;23;20009;-81
2022/11/20 00:41:34;;;;;;;14.48;10.38;;;;;;;;;;1270674;23;19993;-80
2022/11/20 00:42:05;;;;;;;15.20;9.63;;;;;;;;;;1269085;23;20112;-80
2022/11/20 00:42:36;;;;;;;11.75;9.70;;;;;;;;;;1264645;23;19997;-81
2022/11/20 00:43:07;;;;;;;13.27;10.18;;;;;;;;;;1264599;23;20080;-80
2022/11/20 00:43:38;;;;;;;14.10;9.77;;;;;;;;;;1270428;23;20125;-80
2022/11/20 00:44:09;;;;;;;13.55;10.52;;;;;;;;;;1270150;23;20001;-81
2022/11/20 00:44:40;;;;;;;15.43;11.07;;;;;;;;;;1270821;23;20485;-81
2022/11/20 00:45:11;;;;;;;14.93;11.52;;;;;;;;;;1264195;23;20006;-80
2022/11/20 00:45:42;;;;;;;14.95;11.80;;;;;;;;;;1265137;23;19998;-80
2022/11/20 00:46:14;;;;;;;14.90;10.45;;;;;;;;;;1270290;23;20429;-81
2022/11/20 00:46:45;;;;;;;15.02;10.02;;;;;;;;;;1264878;23;20010;-80
2022/11/20 00:47:16;;;;;;;13.63;9.65;;;;;;;;;;1270240;23;20002;-81
2022/11/20 00:47:47;;;;;;;13.55;10.48;;;;;;;;;;1270365;23;20583;-82
2022/11/20 00:48:18;;;;;;;13.63;9.82;;;;;;;;;;1270364;23;20094;-81
2022/11/20 00:48:50;;;;;;;13.52;9.20;;;;;;;;;;1269690;23;20024;-81
2022/11/20 00:49:21;;;;;;;16.17;11.73;;;;;;;;;;1277041;23;20001;-81
2022/11/20 00:49:52;;;;;;;13.55;10.32;;;;;;;;;;1277448;23;20075;-81
2022/11/20 00:50:23;;;;;;;14.55;9.65;;;;;;;;;;1276834;23;20339;-79
2022/11/20 00:50:54;;;;;;;13.57;9.50;;;;;;;;;;1277076;23;20043;-80
2022/11/20 00:51:26;;;;;;;12.18;9.75;;;;;;;;;;1270293;23;20005;-81
2022/11/20 00:51:57;;;;;;;13.15;10.25;;;;;;;;;;1270812;23;20037;-81
2022/11/20 00:52:28;;;;;;;12.52;9.98;;;;;;;;;;1264079;23;20105;-80
2022/11/20 00:52:59;;;;;;;11.88;8.82;;;;;;;;;;1265068;23;20053;-80
2022/11/20 00:53:30;;;;;;;15.05;10.40;;;;;;;;;;1264120;23;20040;-80
2022/11/20 00:54:01;;;;;;;13.13;10.05;;;;;;;;;;1263556;23;20825;-80
2022/11/20 00:54:32;;;;;;;13.52;10.23;;;;;;;;;;1264897;23;20045;-82
2022/11/20 00:55:03;;;;;;;14.50;10.05;;;;;;;;;;1270351;23;20095;-80
2022/11/20 00:55:34;;;;;;;12.63;9.85;;;;;;;;;;1269547;23;20013;-81
2022/11/20 00:56:07;;;;;;;13.65;8.65;;;;;;;;;;1270397;23;20005;-82
2022/11/20 00:56:38;;;;;;;14.35;10.68;;;;;;;;;;1269689;23;20006;-82
2022/11/20 00:57:08;;;;;;;14.18;10.05;;;;;;;;;;1270286;23;20534;-80
2022/11/20 00:57:39;;;;;;;15.70;10.63;;;;;;;;;;1269998;23;20088;-79
2022/11/20 00:58:10;;;;;;;12.75;9.95;;;;;;;;;;1270362;23;20096;-80
2022/11/20 00:58:42;;;;;;;14.02;9.85;;;;;;;;;;1268876;23;20079;-80
2022/11/20 00:59:13;;;;;;;13.10;9.55;;;;;;;;;;1265191;23;20012;-80
2022/11/20 00:59:44;;;;;;;13.60;10.98;;;;;;;;;;1270167;23;20068;-81
2022/11/20 01:00:16;;;;;;;15.30;10.52;;;;;;;;;;1265115;23;20430;-80
2022/11/20 01:00:47;;;;;;;16.38;11.90;;;;;;;;;;1270184;23;20021;-80
2022/11/20 01:01:19;;;;;;;16.83;11.70;;;;;;;;;;1270447;23;20377;-80
2022/11/20 01:01:50;;;;;;;13.73;10.57;;;;;;;;;;1269891;23;20009;-81
2022/11/20 01:02:21;;;;;;;13.45;10.00;;;;;;;;;;1269596;23;20002;-79
2022/11/20 01:02:52;;;;;;;17.10;11.95;;;;;;;;;;1269941;23;20052;-80
2022/11/20 01:03:23;;;;;;;14.63;10.48;;;;;;;;;;1264705;23;20008;-80
2022/11/20 01:03:55;;;;;;;13.82;10.20;;;;;;;;;;1269907;23;20005;-79
2022/11/20 01:04:26;;;;;;;13.23;10.85;;;;;;;;;;1269979;23;20042;-80
2022/11/20 01:04:57;;;;;;;13.57;9.75;;;;;;;;;;1269924;23;20001;-80
2022/11/20 01:05:28;;;;;;;14.85;9.98;;;;;;;;;;1270357;23;20001;-80
2022/11/20 01:06:04;;;;;;;14.52;10.18;;;;;;;;;;1269981;23;20468;-80
2022/11/20 01:06:36;;;;;;;18.70;12.82;;;;;;;;;;1270404;23;20454;-80
2022/11/20 01:07:07;;;;;;;19.13;12.18;;;;;;;;;;1270089;23;20006;-80
2022/11/20 01:07:38;;;;;;;12.52;9.52;;;;;;;;;;1272155;23;20032;-81
2022/11/20 01:08:09;;;;;;;14.88;10.38;;;;;;;;;;1269918;23;19997;-80
2022/11/20 01:08:40;;;;;;;14.25;8.90;;;;;;;;;;1270428;23;20493;-80
2022/11/20 01:09:12;;;;;;;12.88;10.40;;;;;;;;;;1263880;23;20323;-80
2022/11/20 01:09:43;;;;;;;14.90;11.90;;;;;;;;;;1264817;23;19997;-79
2022/11/20 01:10:14;;;;;;;14.57;11.55;;;;;;;;;;1264087;23;20002;-80
2022/11/20 01:10:45;;;;;;;18.00;12.60;;;;;;;;;;1258502;23;20006;-81
2022/11/20 01:11:20;;;;;;;16.75;11.43;;;;;;;;;;1263922;23;20153;-80
2022/11/20 01:11:51;;;;;;;14.10;10.50;;;;;;;;;;1265265;23;20077;-80
2022/11/20 01:12:22;;;;;;;13.05;9.93;;;;;;;;;;1271473;23;20126;-81
2022/11/20 01:13:36;;;;;;;13.93;10.15;;;;;;;;;;1276845;23;20084;-80
2022/11/20 01:13:45;;;;;;;13.57;10.68;;;;;;;;;;1276607;23;20398;-80
2022/11/20 01:14:18;;;;;;;14.82;10.93;;;;;;;;;;1276953;23;20008;-79
2022/11/20 01:14:49;;;;;;;18.77;11.60;;;;;;;;;;1269816;23;20012;-79
2022/11/20 01:15:20;;;;;;;16.10;11.15;;;;;;;;;;1270464;23;20056;-80
2022/11/20 01:15:51;;;;;;;17.95;13.02;;;;;;;;;;1257865;23;20010;-80
2022/11/20 01:16:23;;;;;;;14.75;11.02;;;;;;;;;;1258299;23;20005;-80
2022/11/20 01:16:54;;;;;;;15.93;11.88;;;;;;;;;;1263955;23;20046;-80
2022/11/20 01:17:25;;;;;;;18.17;12.82;;;;;;;;;;1265489;23;20077;-79
2022/11/20 01:17:55;;;;;;;15.63;12.23;;;;;;;;;;1276216;23;20064;-80
2022/11/20 01:18:26;;;;;;;18.50;11.80;;;;;;;;;;1276598;23;20048;-80
2022/11/20 01:18:59;;;;;;;16.73;12.45;;;;;;;;;;1276351;23;20055;-80
2022/11/20 01:19:30;;;;;;;17.08;12.68;;;;;;;;;;1270069;23;20029;-80
2022/11/20 01:20:01;;;;;;;19.73;13.20;;;;;;;;;;1263975;23;19994;-81
2022/11/20 01:20:38;;;;;;;19.00;12.80;;;;;;;;;;1264056;23;20545;-80
2022/11/20 01:21:13;;;;;;;19.20;12.52;;;;;;;;;;1265271;23;20432;-80
2022/11/20 01:21:45;;;;;;;17.83;13.20;;;;;;;;;;1263807;23;20010;-80
2022/11/20 01:22:16;;;;;;;16.27;12.07;;;;;;;;;;1263842;23;20531;-80
2022/11/20 01:22:47;;;;;;;16.63;12.00;;;;;;;;;;1265113;23;20436;-79
2022/11/20 01:23:18;;;;;;;19.73;14.57;;;;;;;;;;1270156;23;19993;-79
2022/11/20 01:23:49;;;;;;;17.35;12.23;;;;;;;;;;1269575;23;20361;-81
2022/11/20 01:24:21;;;;;;;16.25;11.25;;;;;;;;;;1264552;23;19998;-79
2022/11/20 01:24:52;;;;;;;21.85;14.93;;;;;;;;;;1270094;23;20485;-80
2022/11/20 01:25:23;;;;;;;21.80;15.48;;;;;;;;;;1269998;23;20520;-79
2022/11/20 01:25:54;;;;;;;24.67;15.10;;;;;;;;;;1270266;23;20413;-79
2022/11/20 01:26:26;;;;;;;19.05;14.35;;;;;;;;;;1269884;23;20005;-80
2022/11/20 01:26:57;;;;;;;17.60;12.60;;;;;;;;;;1269792;23;20020;-80
2022/11/20 01:27:28;;;;;;;16.08;11.02;;;;;;;;;;1270106;23;20009;-80
2022/11/20 01:27:59;;;;;;;20.00;12.55;;;;;;;;;;1270060;23;20001;-80
2022/11/20 01:28:30;;;;;;;16.38;11.50;;;;;;;;;;1270094;23;20353;-80
2022/11/20 01:29:01;;;;;;;14.68;11.65;;;;;;;;;;1270125;23;19994;-80
2022/11/20 01:29:32;;;;;;;16.95;11.98;;;;;;;;;;1270512;23;20072;-80
2022/11/20 01:30:03;;;;;;;15.93;11.25;;;;;;;;;;1276531;23;19994;-80
2022/11/20 01:30:34;;;;;;;16.92;12.50;;;;;;;;;;1276519;23;20012;-80
2022/11/20 01:31:16;;;;;;;17.70;12.25;;;;;;;;;;1276541;23;20068;-80
2022/11/20 01:31:47;;;;;;;16.63;12.65;;;;;;;;;;1276502;23;20009;-80
2022/11/20 01:32:18;;;;;;;18.23;12.57;;;;;;;;;;1276200;23;19997;-79
2022/11/20 01:32:49;;;;;;;20.52;13.65;;;;;;;;;;1276633;23;20004;-80
2022/11/20 01:33:20;;;;;;;19.08;12.18;;;;;;;;;;1270476;23;20116;-80
2022/11/20 01:33:52;;;;;;;20.15;12.18;;;;;;;;;;1270565;23;20432;-80
2022/11/20 01:34:24;;;;;;;15.70;12.82;;;;;;;;;;1264055;23;20087;-80
2022/11/20 01:34:55;;;;;;;16.75;11.13;;;;;;;;;;1265154;23;20049;-80
2022/11/20 01:35:26;;;;;;;15.95;12.43;;;;;;;;;;1270355;23;20361;-80
2022/11/20 01:36:04;;;;;;;16.38;11.25;;;;;;;;;;1270440;23;20001;-80
2022/11/20 01:36:36;;;;;;;18.10;12.60;;;;;;;;;;1272166;23;20005;-80
2022/11/20 01:37:07;;;;;;;19.05;13.30;;;;;;;;;;1276887;23;19997;-80
2022/11/20 01:37:38;;;;;;;21.42;14.48;;;;;;;;;;1270097;23;20006;-80
2022/11/20 01:38:09;;;;;;;23.02;14.63;;;;;;;;;;1270372;23;19996;-80
2022/11/20 01:38:40;;;;;;;19.98;14.20;;;;;;;;;;1264238;23;19994;-81
2022/11/20 01:39:16;;;;;;;22.55;16.40;;;;;;;;;;1264619;23;20006;-81
2022/11/20 01:39:47;;;;;;;28.13;19.35;;;;;;;;;;1263972;23;20080;-80
2022/11/20 01:40:18;;;;;;;30.35;20.42;;;;;;;;;;1264645;23;20323;-81
2022/11/20 01:40:55;;;;;;;26.42;18.38;;;;;;;;;;1265326;23;20077;-81
2022/11/20 01:43:22;;;;;;;23.70;15.70;;;;;;;;;;1272037;23;20105;-80
2022/11/20 01:43:53;;;;;;;21.63;14.52;;;;;;;;;;1270091;23;20013;-80
2022/11/20 01:44:42;;;;;;;19.65;12.80;;;;;;;;;;1264529;23;20358;-81
2022/11/20 01:45:32;;;;;;;18.90;12.68;;;;;;;;;;1264154;23;20084;-81
2022/11/20 01:46:13;;;;;;;18.15;12.20;;;;;;;;;;1271585;23;20045;-80
2022/11/20 01:46:57;;;;;;;18.02;11.95;;;;;;;;;;1276860;23;20005;-80
2022/11/20 01:47:43;;;;;;;16.95;12.38;;;;;;;;;;1276992;23;20103;-80
2022/11/20 01:48:14;;;;;;;17.88;11.93;;;;;;;;;;1270221;23;20005;-81
2022/11/20 01:48:53;;;;;;;16.00;11.38;;;;;;;;;;1270486;23;20002;-80
2022/11/20 01:49:24;;;;;;;;;;;;;;;;;;1270696;23;20040;-80
2022/11/20 01:50:15;;;;;;;16.77;11.85;;;;;;;;;;1272881;23;20314;-81
2022/11/20 01:50:46;;;;;;;18.73;12.65;;;;;;;;;;1269834;23;20036;-80
2022/11/20 01:51:20;;;;;;;17.25;12.00;;;;;;;;;;1263957;23;20013;-79
2022/11/20 01:51:57;;;;;;;17.92;12.70;;;;;;;;;;1264374;23;20252;-81
2022/11/20 01:52:31;;;;;;;17.33;12.93;;;;;;;;;;1266187;23;20089;-81
2022/11/20 01:53:04;;;;;;;17.45;11.98;;;;;;;;;;1273602;23;20092;-80
2022/11/20 01:53:36;;;;;;;18.42;13.18;;;;;;;;;;1270259;23;20092;-81
2022/11/20 01:54:10;;;;;;;17.10;11.98;;;;;;;;;;1264206;23;20013;-81
2022/11/20 01:54:44;;;;;;;19.10;13.43;;;;;;;;;;1264048;23;20002;-80
2022/11/20 01:55:18;;;;;;;15.60;11.32;;;;;;;;;;1266109;23;20005;-81
2022/11/20 01:55:50;;;;;;;20.55;12.73;;;;;;;;;;1272673;23;20001;-81
2022/11/20 01:56:22;;;;;;;16.15;11.38;;;;;;;;;;1270422;23;20734;-80
2022/11/20 01:56:54;;;;;;;15.23;11.27;;;;;;;;;;1264258;23;20383;-80
2022/11/20 01:57:27;;;;;;;16.48;11.80;;;;;;;;;;1264515;23;20469;-80
2022/11/20 01:57:58;;;;;;;14.48;10.52;;;;;;;;;;1265416;23;20013;-80
2022/11/20 01:58:32;;;;;;;16.55;12.07;;;;;;;;;;1264202;23;20426;-80
2022/11/20 01:59:05;;;;;;;18.08;12.90;;;;;;;;;;1264152;23;20006;-81
2022/11/20 01:59:36;;;;;;;18.77;14.85;;;;;;;;;;1259554;23;20057;-80
2022/11/20 02:00:09;;;;;;;17.35;13.68;;;;;;;;;;1264193;23;20501;-80
2022/11/20 02:00:41;;;;;;;16.58;13.75;;;;;;;;;;1264221;23;19998;-80
2022/11/20 02:01:13;;;;;;;17.83;14.70;;;;;;;;;;1260050;23;20092;-80
2022/11/20 02:01:44;;;;;;;18.73;13.95;;;;;;;;;;1265301;23;20013;-80
2022/11/20 02:02:15;;;;;;;17.42;12.75;;;;;;;;;;1264491;23;20054;-81
2022/11/20 02:02:48;;;;;;;16.83;11.75;;;;;;;;;;1264791;23;20005;-80
2022/11/20 02:03:20;;;;;;;15.93;11.23;;;;;;;;;;1270484;23;20001;-81
2022/11/20 02:03:51;;;;;;;16.10;11.80;;;;;;;;;;1264879;23;20058;-80
2022/11/20 02:04:23;;;;;;;13.82;10.25;;;;;;;;;;1270151;23;19998;-80
2022/11/20 02:04:57;;;;;;;14.23;10.77;;;;;;;;;;1270047;23;20129;-79
2022/11/20 02:05:47;;;;;;;14.10;10.82;;;;;;;;;;1270464;23;20048;-80
2022/11/20 02:06:29;;;;;;;14.90;10.35;;;;;;;;;;1270227;23;20005;-81
2022/11/20 02:07:01;;;;;;;16.85;11.05;;;;;;;;;;1264084;23;20006;-81
2022/11/20 02:07:32;;;;;;;14.93;11.13;;;;;;;;;;1270393;23;20533;-80
2022/11/20 02:08:05;;;;;;;18.05;12.00;;;;;;;;;;1270247;23;20005;-80
2022/11/20 02:08:36;;;;;;;16.27;10.73;;;;;;;;;;1270503;23;20006;-81
2022/11/20 02:09:07;;;;;;;13.35;10.35;;;;;;;;;;1271038;23;19997;-80
2022/11/20 02:09:38;;;;;;;17.80;11.77;;;;;;;;;;1270327;23;20087;-81
2022/11/20 02:10:09;;;;;;;18.30;12.85;;;;;;;;;;1264097;23;20006;-80
2022/11/20 02:10:40;;;;;;;16.63;12.80;;;;;;;;;;1264440;23;20054;-81
2022/11/20 02:11:12;;;;;;;16.48;11.18;;;;;;;;;;1264286;23;20010;-80
2022/11/20 02:11:43;;;;;;;12.98;9.75;;;;;;;;;;1270403;23;20084;-80
2022/11/20 02:13:55;;;;;;;14.38;11.27;;;;;;;;;;1256856;23;20454;-79
2022/11/20 02:14:26;;;;;;;15.70;11.48;;;;;;;;;;1276805;23;20028;-79
2022/11/20 02:14:57;;;;;;;14.73;10.32;;;;;;;;;;1270193;23;20050;-79
2022/11/20 02:15:28;;;;;;;15.93;11.07;;;;;;;;;;1270539;23;20008;-80
2022/11/20 02:16:00;;;;;;;14.98;10.85;;;;;;;;;;1264390;23;19998;-80
2022/11/20 02:16:33;;;;;;;16.10;11.43;;;;;;;;;;1264363;23;20012;-81
2022/11/20 02:17:04;;;;;;;18.35;11.88;;;;;;;;;;1270656;23;20025;-79
2022/11/20 02:17:35;;;;;;;14.82;11.60;;;;;;;;;;1271421;23;19998;-79
2022/11/20 02:18:07;;;;;;;13.25;9.57;;;;;;;;;;1270343;23;20056;-80
2022/11/20 02:18:39;;;;;;;14.02;10.63;;;;;;;;;;1270435;23;20025;-80
2022/11/20 02:19:13;;;;;;;15.15;9.93;;;;;;;;;;1270682;23;20005;-80
2022/11/20 02:19:44;;;;;;;16.92;11.57;;;;;;;;;;1271512;23;20005;-81
2022/11/20 02:20:15;;;;;;;18.23;12.60;;;;;;;;;;1277165;23;20000;-79
2022/11/20 02:20:47;;;;;;;15.32;11.25;;;;;;;;;;1270080;23;20021;-80
2022/11/20 02:21:21;;;;;;;17.52;13.38;;;;;;;;;;1264587;23;20007;-80
2022/11/20 02:21:52;;;;;;;17.83;12.73;;;;;;;;;;1264117;23;20517;-80
2022/11/20 02:22:29;;;;;;;18.25;12.07;;;;;;;;;;1265760;23;20525;-80
2022/11/20 02:23:09;;;;;;;15.00;10.95;;;;;;;;;;1264217;23;20320;-79
2022/11/20 02:23:51;;;;;;;16.90;11.93;;;;;;;;;;1267703;23;20017;-79
2022/11/20 02:24:23;;;;;;;16.20;11.82;;;;;;;;;;1270537;23;20000;-80
2022/11/20 02:24:54;;;;;;;16.00;11.18;;;;;;;;;;1270319;23;20005;-80
2022/11/20 02:25:26;;;;;;;16.38;10.70;;;;;;;;;;1270579;23;19997;-80
2022/11/20 02:25:58;;;;;;;13.95;11.05;;;;;;;;;;1270607;23;20073;-80
2022/11/20 02:26:30;;;;;;;14.82;11.77;;;;;;;;;;1270709;23;20084;-80
2022/11/20 02:27:19;;;;;;;15.55;10.35;;;;;;;;;;1270387;23;20064;-80
2022/11/20 02:27:51;;;;;;;15.88;10.32;;;;;;;;;;1270384;23;20272;-80
2022/11/20 02:28:23;;;;;;;17.27;12.15;;;;;;;;;;1270146;23;20007;-79
2022/11/20 02:28:54;;;;;;;15.57;10.95;;;;;;;;;;1270567;23;20001;-80
2022/11/20 02:29:36;;;;;;;15.43;10.60;;;;;;;;;;1270410;23;20622;-79
2022/11/20 02:30:07;;;;;;;15.10;11.38;;;;;;;;;;1273243;23;19997;-80
2022/11/20 02:30:39;;;;;;;14.90;10.55;;;;;;;;;;1270398;23;20071;-80
2022/11/20 02:31:10;;;;;;;16.35;10.50;;;;;;;;;;1270292;23;20032;-79
2022/11/20 02:31:42;;;;;;;12.45;9.02;;;;;;;;;;1264361;23;20263;-82
2022/11/20 02:32:20;;;;;;;12.98;9.93;;;;;;;;;;1265084;23;20492;-80
2022/11/20 02:32:51;;;;;;;15.15;10.73;;;;;;;;;;1270640;23;20063;-80
2022/11/20 02:33:22;;;;;;;15.52;9.77;;;;;;;;;;1266091;23;20056;-80
2022/11/20 02:33:57;;;;;;;15.95;10.77;;;;;;;;;;1270272;23;20005;-80
2022/11/20 02:34:28;;;;;;;15.20;10.77;;;;;;;;;;1270185;23;20005;-81
2022/11/20 02:35:07;;;;;;;14.23;11.45;;;;;;;;;;1270507;23;20053;-80
2022/11/20 02:35:42;;;;;;;15.13;11.52;;;;;;;;;;1267587;23;20097;-80
2022/11/20 02:36:15;;;;;;;15.48;10.55;;;;;;;;;;1264508;23;20002;-80
2022/11/20 02:36:47;;;;;;;15.00;10.45;;;;;;;;;;1266784;23;19998;-80
2022/11/20 02:37:18;;;;;;;17.38;11.82;;;;;;;;;;1270374;23;20432;-81
2022/11/20 02:37:51;;;;;;;17.73;12.52;;;;;;;;;;1269960;23;20598;-79
2022/11/20 02:38:22;;;;;;;18.67;12.98;;;;;;;;;;1269752;23;20101;-78
2022/11/20 02:38:53;;;;;;;15.38;10.38;;;;;;;;;;1269729;23;19997;-79
2022/11/20 02:39:25;;;;;;;13.63;9.55;;;;;;;;;;1269671;23;20063;-79
2022/11/20 02:39:56;;;;;;;12.43;9.43;;;;;;;;;;1270763;23;20008;-80
2022/11/20 02:40:28;;;;;;;11.68;9.57;;;;;;;;;;1269766;23;20012;-80
2022/11/20 02:40:59;;;;;;;15.50;10.52;;;;;;;;;;1263696;23;20045;-79
2022/11/20 02:41:33;;;;;;;15.93;10.80;;;;;;;;;;1263958;23;20068;-80
2022/11/20 02:42:04;;;;;;;12.32;9.32;;;;;;;;;;1264807;23;20014;-80
2022/11/20 02:42:36;;;;;;;15.23;10.88;;;;;;;;;;1270122;23;20080;-80
2022/11/20 02:43:07;;;;;;;15.27;9.90;;;;;;;;;;1263505;23;20017;-80
2022/11/20 02:43:38;;;;;;;13.80;11.13;;;;;;;;;;1264427;23;20092;-80
2022/11/20 02:44:09;;;;;;;13.80;10.13;;;;;;;;;;1269683;23;20111;-80
2022/11/20 02:44:40;;;;;;;13.43;10.85;;;;;;;;;;1270277;23;20787;-80
2022/11/20 02:45:11;;;;;;;14.65;9.75;;;;;;;;;;1269768;23;20064;-80
2022/11/20 02:45:42;;;;;;;16.15;11.15;;;;;;;;;;1269976;23;20001;-80
2022/11/20 02:46:13;;;;;;;17.50;11.23;;;;;;;;;;1269716;23;20002;-79
2022/11/20 02:46:44;;;;;;;15.23;12.02;;;;;;;;;;1269895;23;20002;-80
2022/11/20 02:47:15;;;;;;;13.90;11.10;;;;;;;;;;1269846;23;20001;-79
2022/11/20 02:47:46;;;;;;;14.90;10.57;;;;;;;;;;1269855;23;20049;-79
2022/11/20 02:48:17;;;;;;;14.43;11.43;;;;;;;;;;1269732;23;20006;-80
2022/11/20 02:48:48;;;;;;;15.35;11.07;;;;;;;;;;1269987;23;20005;-79
2022/11/20 02:49:19;;;;;;;13.45;10.52;;;;;;;;;;1269820;23;20086;-80
2022/11/20 02:49:50;;;;;;;17.65;11.35;;;;;;;;;;1269627;23;20060;-80
2022/11/20 02:50:21;;;;;;;16.63;10.52;;;;;;;;;;1263515;23;19998;-80
2022/11/20 02:50:52;;;;;;;14.30;10.23;;;;;;;;;;1264196;23;20053;-80
2022/11/20 02:51:23;;;;;;;14.45;10.27;;;;;;;;;;1270177;23;20001;-80
2022/11/20 02:51:54;;;;;;;14.73;11.25;;;;;;;;;;1269981;23;20337;-80
2022/11/20 02:52:25;;;;;;;15.50;10.70;;;;;;;;;;1263400;23;20345;-80
2022/11/20 02:52:56;;;;;;;15.02;10.93;;;;;;;;;;1263918;23;20010;-80
2022/11/20 02:53:27;;;;;;;18.73;11.20;;;;;;;;;;1264128;23;20026;-80
2022/11/20 02:53:58;;;;;;;15.10;9.57;;;;;;;;;;1270044;23;20006;-80
2022/11/20 02:54:29;;;;;;;15.00;10.98;;;;;;;;;;1270469;23;20031;-79
2022/11/20 02:55:00;;;;;;;12.88;9.85;;;;;;;;;;1269866;23;20013;-79
2022/11/20 02:55:31;;;;;;;15.57;10.93;;;;;;;;;;1263588;23;20081;-80
2022/11/20 02:56:02;;;;;;;14.10;10.32;;;;;;;;;;1264534;23;20072;-79
2022/11/20 02:56:33;;;;;;;13.48;10.13;;;;;;;;;;1264430;23;20026;-79
2022/11/20 02:57:04;;;;;;;13.57;9.85;;;;;;;;;;1270674;23;20002;-79
2022/11/20 02:57:35;;;;;;;12.10;9.05;;;;;;;;;;1276818;23;20013;-80
2022/11/20 02:58:06;;;;;;;13.23;9.68;;;;;;;;;;1277083;23;20123;-79
2022/11/20 02:58:37;;;;;;;14.30;10.45;;;;;;;;;;1270174;23;20369;-80
2022/11/20 02:59:08;;;;;;;14.52;10.52;;;;;;;;;;1270491;23;20378;-79
2022/11/20 02:59:39;;;;;;;17.00;10.13;;;;;;;;;;1270223;23;20006;-79
2022/11/20 03:00:11;;;;;;;11.43;9.20;;;;;;;;;;1264622;23;20002;-79
2022/11/20 03:00:42;;;;;;;13.07;9.27;;;;;;;;;;1270164;23;20504;-79
2022/11/20 03:01:13;;;;;;;14.38;10.52;;;;;;;;;;1264399;23;20525;-80
2022/11/20 03:01:44;;;;;;;13.77;10.88;;;;;;;;;;1258364;23;20089;-81
2022/11/20 03:02:14;;;;;;;13.88;10.40;;;;;;;;;;1264272;23;20041;-80
2022/11/20 03:02:45;;;;;;;14.25;10.55;;;;;;;;;;1263928;23;20462;-80
2022/11/20 03:03:16;;;;;;;14.55;10.52;;;;;;;;;;1264638;23;20002;-80
2022/11/20 03:03:48;;;;;;;14.85;10.52;;;;;;;;;;1270246;23;20086;-81
2022/11/20 03:04:19;;;;;;;14.40;10.00;;;;;;;;;;1270234;23;20001;-80
2022/11/20 03:04:50;;;;;;;15.73;10.23;;;;;;;;;;1270108;23;20043;-80
2022/11/20 03:05:21;;;;;;;14.27;11.10;;;;;;;;;;1270793;23;20043;-79
2022/11/20 03:05:52;;;;;;;13.52;9.80;;;;;;;;;;1264519;23;20005;-79
2022/11/20 03:06:23;;;;;;;14.52;10.13;;;;;;;;;;1264328;23;20009;-80
2022/11/20 03:06:54;;;;;;;14.60;10.35;;;;;;;;;;1258154;23;20038;-80
2022/11/20 03:07:25;;;;;;;13.68;10.50;;;;;;;;;;1258322;23;20009;-80
2022/11/20 03:07:56;;;;;;;12.25;9.60;;;;;;;;;;1264283;23;20005;-79
2022/11/20 03:08:28;;;;;;;13.82;9.48;;;;;;;;;;1258553;23;20030;-79
2022/11/20 03:08:59;;;;;;;13.23;10.30;;;;;;;;;;1264000;23;20080;-80
2022/11/20 03:09:30;;;;;;;12.23;9.60;;;;;;;;;;1264692;23;20068;-79
2022/11/20 03:10:01;;;;;;;15.10;10.63;;;;;;;;;;1264767;23;20033;-80
2022/11/20 03:10:32;;;;;;;12.30;9.77;;;;;;;;;;1264020;23;20012;-80
2022/11/20 03:11:04;;;;;;;15.50;11.55;;;;;;;;;;1257979;23;20006;-80
2022/11/20 03:11:35;;;;;;;14.63;10.82;;;;;;;;;;1258703;23;20030;-80